sensor_id;sensor_type;location;lat;lon;timestamp;P1;durP1;ratioP1;P2;durP2;ratioP2
43504;SDS011;29098;48.184;16.298;2023-08-17T00:01:25;13.35;;;7.63;;
43504;SDS011;29098;48.184;16.298;2023-08-17T00:03:51;18.92;;;9.25;;
43504;SDS011;29098;48.184;16.298;2023-08-17T00:06:16;13.32;;;8.93;;
43504;SDS011;29098;48.184;16.298;2023-08-17T00:08:42;9.93;;;6.90;;
43504;SDS011;29098;48.184;16.298;2023-08-17T00:11:07;8.02;;;6.35;;
43504;SDS011;29098;48.184;16.298;2023-08-17T00:13:34;11.15;;;6.35;;
43504;SDS011;29098;48.184;16.298;2023-08-17T00:16:00;9.43;;;6.93;;
43504;SDS011;29098;48.184;16.298;2023-08-17T00:18:25;8.43;;;6.45;;
43504;SDS011;29098;48.184;16.298;2023-08-17T00:20:51;10.27;;;6.57;;
43504;SDS011;29098;48.184;16.298;2023-08-17T00:23:17;10.45;;;7.13;;
43504;SDS011;29098;48.184;16.298;2023-08-17T00:25:45;8.73;;;5.93;;
43504;SDS011;29098;48.184;16.298;2023-08-17T00:28:12;12.95;;;6.68;;
43504;SDS011;29098;48.184;16.298;2023-08-17T00:30:38;7.70;;;6.43;;
43504;SDS011;29098;48.184;16.298;2023-08-17T00:33:04;11.55;;;6.82;;
43504;SDS011;29098;48.184;16.298;2023-08-17T00:35:29;11.68;;;7.63;;
43504;SDS011;29098;48.184;16.298;2023-08-17T00:37:55;8.35;;;6.10;;
43504;SDS011;29098;48.184;16.298;2023-08-17T00:40:20;8.20;;;6.30;;
43504;SDS011;29098;48.184;16.298;2023-08-17T00:42:45;10.13;;;7.07;;
43504;SDS011;29098;48.184;16.298;2023-08-17T00:45:11;8.63;;;5.70;;
43504;SDS011;29098;48.184;16.298;2023-08-17T00:47:37;8.68;;;5.93;;
43504;SDS011;29098;48.184;16.298;2023-08-17T00:50:03;7.72;;;6.05;;
43504;SDS011;29098;48.184;16.298;2023-08-17T00:52:29;10.77;;;6.20;;
43504;SDS011;29098;48.184;16.298;2023-08-17T00:54:57;10.20;;;6.85;;
43504;SDS011;29098;48.184;16.298;2023-08-17T00:57:25;7.97;;;6.50;;
43504;SDS011;29098;48.184;16.298;2023-08-17T00:59:51;7.78;;;5.38;;
43504;SDS011;29098;48.184;16.298;2023-08-17T01:02:17;6.82;;;5.32;;
43504;SDS011;29098;48.184;16.298;2023-08-17T01:04:43;7.25;;;5.65;;
43504;SDS011;29098;48.184;16.298;2023-08-17T01:07:08;7.28;;;5.63;;
43504;SDS011;29098;48.184;16.298;2023-08-17T01:09:34;7.25;;;5.60;;
43504;SDS011;29098;48.184;16.298;2023-08-17T01:17:30;7.68;;;5.38;;
43504;SDS011;29098;48.184;16.298;2023-08-17T01:20:02;8.48;;;5.68;;
43504;SDS011;29098;48.184;16.298;2023-08-17T01:22:29;8.00;;;6.22;;
43504;SDS011;29098;48.184;16.298;2023-08-17T01:24:58;7.38;;;5.32;;
43504;SDS011;29098;48.184;16.298;2023-08-17T01:27:24;6.72;;;5.25;;
43504;SDS011;29098;48.184;16.298;2023-08-17T01:29:50;7.55;;;5.45;;
43504;SDS011;29098;48.184;16.298;2023-08-17T01:32:21;7.32;;;5.63;;
43504;SDS011;29098;48.184;16.298;2023-08-17T01:34:58;7.22;;;5.65;;
43504;SDS011;29098;48.184;16.298;2023-08-17T01:37:29;6.55;;;5.05;;
43504;SDS011;29098;48.184;16.298;2023-08-17T01:39:59;8.10;;;6.07;;
43504;SDS011;29098;48.184;16.298;2023-08-17T01:42:24;8.75;;;5.40;;
43504;SDS011;29098;48.184;16.298;2023-08-17T01:44:51;6.43;;;5.05;;
43504;SDS011;29098;48.184;16.298;2023-08-17T01:47:20;7.28;;;5.53;;
43504;SDS011;29098;48.184;16.298;2023-08-17T01:49:49;7.50;;;5.60;;
43504;SDS011;29098;48.184;16.298;2023-08-17T01:52:15;8.48;;;5.90;;
43504;SDS011;29098;48.184;16.298;2023-08-17T01:54:41;7.45;;;6.03;;
43504;SDS011;29098;48.184;16.298;2023-08-17T01:57:06;7.07;;;5.70;;
43504;SDS011;29098;48.184;16.298;2023-08-17T01:59:32;8.57;;;5.90;;
43504;SDS011;29098;48.184;16.298;2023-08-17T02:01:57;7.80;;;5.03;;
43504;SDS011;29098;48.184;16.298;2023-08-17T02:04:23;9.00;;;5.72;;
43504;SDS011;29098;48.184;16.298;2023-08-17T02:06:49;7.05;;;5.63;;
43504;SDS011;29098;48.184;16.298;2023-08-17T02:09:15;9.88;;;5.45;;
43504;SDS011;29098;48.184;16.298;2023-08-17T02:11:40;8.38;;;5.85;;
43504;SDS011;29098;48.184;16.298;2023-08-17T02:14:05;6.63;;;4.90;;
43504;SDS011;29098;48.184;16.298;2023-08-17T02:16:31;7.47;;;6.13;;
43504;SDS011;29098;48.184;16.298;2023-08-17T02:18:56;6.88;;;5.32;;
43504;SDS011;29098;48.184;16.298;2023-08-17T02:21:22;7.10;;;5.90;;
43504;SDS011;29098;48.184;16.298;2023-08-17T02:23:47;8.05;;;5.15;;
43504;SDS011;29098;48.184;16.298;2023-08-17T02:26:13;8.85;;;6.20;;
43504;SDS011;29098;48.184;16.298;2023-08-17T02:28:39;6.47;;;4.53;;
43504;SDS011;29098;48.184;16.298;2023-08-17T02:31:04;7.93;;;5.75;;
43504;SDS011;29098;48.184;16.298;2023-08-17T02:33:31;6.55;;;5.53;;
43504;SDS011;29098;48.184;16.298;2023-08-17T02:35:58;8.30;;;5.22;;
43504;SDS011;29098;48.184;16.298;2023-08-17T02:38:23;7.45;;;5.18;;
43504;SDS011;29098;48.184;16.298;2023-08-17T02:40:49;6.70;;;5.05;;
43504;SDS011;29098;48.184;16.298;2023-08-17T02:43:15;7.57;;;5.22;;
43504;SDS011;29098;48.184;16.298;2023-08-17T02:45:40;6.25;;;4.90;;
43504;SDS011;29098;48.184;16.298;2023-08-17T02:48:06;7.03;;;4.88;;
43504;SDS011;29098;48.184;16.298;2023-08-17T02:50:32;5.72;;;4.45;;
43504;SDS011;29098;48.184;16.298;2023-08-17T02:52:57;6.80;;;5.18;;
43504;SDS011;29098;48.184;16.298;2023-08-17T02:55:24;7.40;;;5.35;;
43504;SDS011;29098;48.184;16.298;2023-08-17T02:57:50;8.02;;;5.63;;
43504;SDS011;29098;48.184;16.298;2023-08-17T03:00:15;8.20;;;5.47;;
43504;SDS011;29098;48.184;16.298;2023-08-17T03:02:41;7.10;;;5.15;;
43504;SDS011;29098;48.184;16.298;2023-08-17T03:05:07;8.45;;;4.95;;
43504;SDS011;29098;48.184;16.298;2023-08-17T03:07:32;7.15;;;5.25;;
43504;SDS011;29098;48.184;16.298;2023-08-17T03:09:58;8.43;;;5.75;;
43504;SDS011;29098;48.184;16.298;2023-08-17T03:12:24;7.75;;;5.82;;
43504;SDS011;29098;48.184;16.298;2023-08-17T03:14:49;6.70;;;5.28;;
43504;SDS011;29098;48.184;16.298;2023-08-17T03:17:15;9.23;;;4.90;;
43504;SDS011;29098;48.184;16.298;2023-08-17T03:19:40;7.53;;;5.95;;
43504;SDS011;29098;48.184;16.298;2023-08-17T03:22:06;7.00;;;5.05;;
43504;SDS011;29098;48.184;16.298;2023-08-17T03:24:31;9.77;;;5.90;;
43504;SDS011;29098;48.184;16.298;2023-08-17T03:26:57;7.88;;;5.53;;
43504;SDS011;29098;48.184;16.298;2023-08-17T03:29:22;9.07;;;5.60;;
43504;SDS011;29098;48.184;16.298;2023-08-17T03:31:48;6.93;;;5.32;;
43504;SDS011;29098;48.184;16.298;2023-08-17T03:34:15;8.52;;;5.57;;
43504;SDS011;29098;48.184;16.298;2023-08-17T03:36:40;7.57;;;5.50;;
43504;SDS011;29098;48.184;16.298;2023-08-17T03:39:06;8.43;;;5.57;;
43504;SDS011;29098;48.184;16.298;2023-08-17T03:41:32;7.05;;;5.47;;
43504;SDS011;29098;48.184;16.298;2023-08-17T03:43:57;6.60;;;5.15;;
43504;SDS011;29098;48.184;16.298;2023-08-17T03:46:22;8.55;;;5.53;;
43504;SDS011;29098;48.184;16.298;2023-08-17T03:48:48;7.47;;;5.57;;
43504;SDS011;29098;48.184;16.298;2023-08-17T03:51:13;9.00;;;5.70;;
43504;SDS011;29098;48.184;16.298;2023-08-17T03:53:39;8.05;;;5.28;;
43504;SDS011;29098;48.184;16.298;2023-08-17T03:56:04;6.72;;;5.63;;
43504;SDS011;29098;48.184;16.298;2023-08-17T03:58:30;7.40;;;4.50;;
43504;SDS011;29098;48.184;16.298;2023-08-17T04:00:59;7.53;;;5.43;;
43504;SDS011;29098;48.184;16.298;2023-08-17T04:03:25;7.72;;;5.72;;
43504;SDS011;29098;48.184;16.298;2023-08-17T04:05:50;7.63;;;5.55;;
43504;SDS011;29098;48.184;16.298;2023-08-17T04:08:16;5.53;;;4.72;;
43504;SDS011;29098;48.184;16.298;2023-08-17T04:10:41;7.60;;;5.25;;
43504;SDS011;29098;48.184;16.298;2023-08-17T04:13:07;6.13;;;4.95;;
43504;SDS011;29098;48.184;16.298;2023-08-17T04:15:32;6.43;;;4.85;;
43504;SDS011;29098;48.184;16.298;2023-08-17T04:17:58;6.63;;;4.95;;
43504;SDS011;29098;48.184;16.298;2023-08-17T04:20:23;8.10;;;5.30;;
43504;SDS011;29098;48.184;16.298;2023-08-17T04:22:50;6.55;;;5.25;;
43504;SDS011;29098;48.184;16.298;2023-08-17T04:25:15;7.70;;;5.28;;
43504;SDS011;29098;48.184;16.298;2023-08-17T04:27:41;6.85;;;5.05;;
43504;SDS011;29098;48.184;16.298;2023-08-17T04:30:07;7.70;;;5.35;;
43504;SDS011;29098;48.184;16.298;2023-08-17T04:32:33;6.57;;;4.97;;
43504;SDS011;29098;48.184;16.298;2023-08-17T04:34:59;6.25;;;4.40;;
43504;SDS011;29098;48.184;16.298;2023-08-17T04:37:24;6.72;;;5.28;;
43504;SDS011;29098;48.184;16.298;2023-08-17T04:39:49;6.65;;;4.90;;
43504;SDS011;29098;48.184;16.298;2023-08-17T04:42:16;7.93;;;4.90;;
43504;SDS011;29098;48.184;16.298;2023-08-17T04:44:41;8.98;;;5.63;;
43504;SDS011;29098;48.184;16.298;2023-08-17T04:47:07;7.57;;;4.95;;
43504;SDS011;29098;48.184;16.298;2023-08-17T04:49:33;6.28;;;4.80;;
43504;SDS011;29098;48.184;16.298;2023-08-17T04:51:58;9.40;;;5.70;;
43504;SDS011;29098;48.184;16.298;2023-08-17T04:54:23;8.13;;;6.05;;
43504;SDS011;29098;48.184;16.298;2023-08-17T04:56:49;7.22;;;5.25;;
43504;SDS011;29098;48.184;16.298;2023-08-17T04:59:14;7.25;;;5.82;;
43504;SDS011;29098;48.184;16.298;2023-08-17T05:01:40;7.20;;;5.35;;
43504;SDS011;29098;48.184;16.298;2023-08-17T05:04:05;8.38;;;5.88;;
43504;SDS011;29098;48.184;16.298;2023-08-17T05:06:31;8.32;;;6.22;;
43504;SDS011;29098;48.184;16.298;2023-08-17T05:08:57;7.05;;;5.32;;
43504;SDS011;29098;48.184;16.298;2023-08-17T05:11:22;6.63;;;5.22;;
43504;SDS011;29098;48.184;16.298;2023-08-17T05:13:48;8.07;;;5.85;;
43504;SDS011;29098;48.184;16.298;2023-08-17T05:16:14;6.63;;;5.57;;
43504;SDS011;29098;48.184;16.298;2023-08-17T05:18:39;8.50;;;5.50;;
43504;SDS011;29098;48.184;16.298;2023-08-17T05:21:05;9.25;;;6.30;;
43504;SDS011;29098;48.184;16.298;2023-08-17T05:23:31;8.25;;;5.97;;
43504;SDS011;29098;48.184;16.298;2023-08-17T05:25:56;8.52;;;6.78;;
43504;SDS011;29098;48.184;16.298;2023-08-17T05:28:22;7.65;;;6.00;;
43504;SDS011;29098;48.184;16.298;2023-08-17T05:30:48;10.63;;;7.35;;
43504;SDS011;29098;48.184;16.298;2023-08-17T05:33:14;8.40;;;6.65;;
43504;SDS011;29098;48.184;16.298;2023-08-17T05:35:40;8.43;;;5.95;;
43504;SDS011;29098;48.184;16.298;2023-08-17T05:38:07;8.98;;;6.32;;
43504;SDS011;29098;48.184;16.298;2023-08-17T05:40:33;9.48;;;7.13;;
43504;SDS011;29098;48.184;16.298;2023-08-17T05:42:59;10.52;;;7.47;;
43504;SDS011;29098;48.184;16.298;2023-08-17T05:45:24;11.27;;;8.75;;
43504;SDS011;29098;48.184;16.298;2023-08-17T05:47:51;12.85;;;8.32;;
43504;SDS011;29098;48.184;16.298;2023-08-17T05:50:17;10.85;;;8.25;;
43504;SDS011;29098;48.184;16.298;2023-08-17T05:52:42;9.35;;;7.53;;
43504;SDS011;29098;48.184;16.298;2023-08-17T05:55:08;9.07;;;7.15;;
43504;SDS011;29098;48.184;16.298;2023-08-17T05:57:34;11.90;;;8.27;;
43504;SDS011;29098;48.184;16.298;2023-08-17T05:59:59;17.42;;;10.73;;
43504;SDS011;29098;48.184;16.298;2023-08-17T06:02:25;17.63;;;12.23;;
43504;SDS011;29098;48.184;16.298;2023-08-17T06:04:50;14.70;;;10.88;;
43504;SDS011;29098;48.184;16.298;2023-08-17T06:07:16;14.30;;;10.50;;
43504;SDS011;29098;48.184;16.298;2023-08-17T06:09:42;16.70;;;11.18;;
43504;SDS011;29098;48.184;16.298;2023-08-17T06:12:08;16.80;;;11.27;;
43504;SDS011;29098;48.184;16.298;2023-08-17T06:14:33;15.85;;;11.40;;
43504;SDS011;29098;48.184;16.298;2023-08-17T06:16:59;17.20;;;11.57;;
43504;SDS011;29098;48.184;16.298;2023-08-17T06:19:25;15.70;;;11.68;;
43504;SDS011;29098;48.184;16.298;2023-08-17T06:21:50;16.63;;;11.02;;
43504;SDS011;29098;48.184;16.298;2023-08-17T06:24:16;14.50;;;10.35;;
43504;SDS011;29098;48.184;16.298;2023-08-17T06:26:43;14.77;;;10.60;;
43504;SDS011;29098;48.184;16.298;2023-08-17T06:29:09;15.57;;;10.23;;
43504;SDS011;29098;48.184;16.298;2023-08-17T06:31:35;16.75;;;10.27;;
43504;SDS011;29098;48.184;16.298;2023-08-17T06:34:00;13.85;;;9.70;;
43504;SDS011;29098;48.184;16.298;2023-08-17T06:36:26;14.07;;;9.57;;
43504;SDS011;29098;48.184;16.298;2023-08-17T06:38:54;14.45;;;9.98;;
43504;SDS011;29098;48.184;16.298;2023-08-17T06:41:20;14.75;;;8.32;;
43504;SDS011;29098;48.184;16.298;2023-08-17T06:43:45;12.63;;;8.68;;
43504;SDS011;29098;48.184;16.298;2023-08-17T06:46:11;11.20;;;8.73;;
43504;SDS011;29098;48.184;16.298;2023-08-17T06:48:36;13.50;;;7.97;;
43504;SDS011;29098;48.184;16.298;2023-08-17T06:51:02;13.25;;;8.50;;
43504;SDS011;29098;48.184;16.298;2023-08-17T06:53:29;10.30;;;8.48;;
43504;SDS011;29098;48.184;16.298;2023-08-17T06:55:55;11.88;;;8.13;;
43504;SDS011;29098;48.184;16.298;2023-08-17T06:58:20;11.63;;;8.13;;
43504;SDS011;29098;48.184;16.298;2023-08-17T07:00:46;11.35;;;8.68;;
43504;SDS011;29098;48.184;16.298;2023-08-17T07:03:12;11.32;;;8.10;;
43504;SDS011;29098;48.184;16.298;2023-08-17T07:05:37;11.63;;;7.88;;
43504;SDS011;29098;48.184;16.298;2023-08-17T07:08:03;9.57;;;7.55;;
43504;SDS011;29098;48.184;16.298;2023-08-17T07:10:29;10.82;;;8.07;;
43504;SDS011;29098;48.184;16.298;2023-08-17T07:12:54;11.70;;;8.18;;
43504;SDS011;29098;48.184;16.298;2023-08-17T07:15:20;12.77;;;8.13;;
43504;SDS011;29098;48.184;16.298;2023-08-17T07:20:20;14.27;;;7.50;;
43504;SDS011;29098;48.184;16.298;2023-08-17T07:22:45;12.25;;;7.75;;
43504;SDS011;29098;48.184;16.298;2023-08-17T07:25:11;10.05;;;7.57;;
43504;SDS011;29098;48.184;16.298;2023-08-17T07:27:36;9.13;;;6.93;;
43504;SDS011;29098;48.184;16.298;2023-08-17T07:30:02;8.07;;;6.68;;
43504;SDS011;29098;48.184;16.298;2023-08-17T07:32:28;10.48;;;6.50;;
43504;SDS011;29098;48.184;16.298;2023-08-17T07:34:53;8.25;;;5.93;;
43504;SDS011;29098;48.184;16.298;2023-08-17T07:37:19;7.75;;;5.95;;
43504;SDS011;29098;48.184;16.298;2023-08-17T07:39:45;10.13;;;7.07;;
43504;SDS011;29098;48.184;16.298;2023-08-17T07:42:10;8.80;;;6.22;;
43504;SDS011;29098;48.184;16.298;2023-08-17T07:44:36;10.82;;;6.38;;
43504;SDS011;29098;48.184;16.298;2023-08-17T07:47:01;10.25;;;6.50;;
43504;SDS011;29098;48.184;16.298;2023-08-17T07:49:30;9.18;;;6.13;;
43504;SDS011;29098;48.184;16.298;2023-08-17T07:51:55;8.55;;;6.60;;
43504;SDS011;29098;48.184;16.298;2023-08-17T07:54:21;11.23;;;6.57;;
43504;SDS011;29098;48.184;16.298;2023-08-17T07:56:47;9.93;;;5.90;;
43504;SDS011;29098;48.184;16.298;2023-08-17T07:59:12;8.80;;;6.10;;
43504;SDS011;29098;48.184;16.298;2023-08-17T08:01:38;8.02;;;5.43;;
43504;SDS011;29098;48.184;16.298;2023-08-17T08:04:04;7.68;;;5.65;;
43504;SDS011;29098;48.184;16.298;2023-08-17T08:06:30;7.80;;;5.75;;
43504;SDS011;29098;48.184;16.298;2023-08-17T08:08:56;7.75;;;5.43;;
43504;SDS011;29098;48.184;16.298;2023-08-17T08:11:21;7.22;;;5.45;;
43504;SDS011;29098;48.184;16.298;2023-08-17T08:13:47;7.50;;;5.05;;
43504;SDS011;29098;48.184;16.298;2023-08-17T08:16:12;8.77;;;5.47;;
43504;SDS011;29098;48.184;16.298;2023-08-17T08:18:38;6.95;;;5.03;;
43504;SDS011;29098;48.184;16.298;2023-08-17T08:21:03;8.40;;;5.75;;
43504;SDS011;29098;48.184;16.298;2023-08-17T08:23:29;7.28;;;5.55;;
43504;SDS011;29098;48.184;16.298;2023-08-17T08:25:54;9.63;;;5.85;;
43504;SDS011;29098;48.184;16.298;2023-08-17T08:28:20;6.88;;;5.55;;
43504;SDS011;29098;48.184;16.298;2023-08-17T08:30:45;8.70;;;5.85;;
43504;SDS011;29098;48.184;16.298;2023-08-17T08:33:11;8.40;;;5.55;;
43504;SDS011;29098;48.184;16.298;2023-08-17T08:35:36;8.63;;;6.00;;
43504;SDS011;29098;48.184;16.298;2023-08-17T08:38:03;7.95;;;6.35;;
43504;SDS011;29098;48.184;16.298;2023-08-17T08:40:29;9.02;;;7.15;;
43504;SDS011;29098;48.184;16.298;2023-08-17T08:42:58;9.93;;;6.63;;
43504;SDS011;29098;48.184;16.298;2023-08-17T08:45:24;9.48;;;6.35;;
43504;SDS011;29098;48.184;16.298;2023-08-17T08:47:52;6.85;;;5.38;;
43504;SDS011;29098;48.184;16.298;2023-08-17T08:50:19;8.80;;;6.30;;
43504;SDS011;29098;48.184;16.298;2023-08-17T08:52:59;8.60;;;7.20;;
43504;SDS011;29098;48.184;16.298;2023-08-17T08:55:34;10.05;;;6.88;;
43504;SDS011;29098;48.184;16.298;2023-08-17T08:58:02;7.50;;;5.57;;
43504;SDS011;29098;48.184;16.298;2023-08-17T09:00:29;10.52;;;6.65;;
43504;SDS011;29098;48.184;16.298;2023-08-17T09:02:55;8.32;;;6.45;;
43504;SDS011;29098;48.184;16.298;2023-08-17T09:05:24;9.85;;;6.20;;
43504;SDS011;29098;48.184;16.298;2023-08-17T09:07:50;10.05;;;6.45;;
43504;SDS011;29098;48.184;16.298;2023-08-17T09:10:17;9.05;;;6.10;;
43504;SDS011;29098;48.184;16.298;2023-08-17T09:12:46;8.73;;;6.05;;
43504;SDS011;29098;48.184;16.298;2023-08-17T09:15:12;8.93;;;6.90;;
43504;SDS011;29098;48.184;16.298;2023-08-17T09:17:38;8.75;;;6.25;;
43504;SDS011;29098;48.184;16.298;2023-08-17T09:20:03;8.73;;;6.63;;
43504;SDS011;29098;48.184;16.298;2023-08-17T09:22:36;8.68;;;6.25;;
43504;SDS011;29098;48.184;16.298;2023-08-17T09:25:06;8.02;;;5.93;;
43504;SDS011;29098;48.184;16.298;2023-08-17T09:27:33;8.38;;;5.25;;
43504;SDS011;29098;48.184;16.298;2023-08-17T09:30:05;7.93;;;6.07;;
43504;SDS011;29098;48.184;16.298;2023-08-17T09:32:32;8.45;;;6.40;;
43504;SDS011;29098;48.184;16.298;2023-08-17T09:35:05;8.57;;;6.40;;
43504;SDS011;29098;48.184;16.298;2023-08-17T09:37:32;11.10;;;7.20;;
43504;SDS011;29098;48.184;16.298;2023-08-17T09:39:58;7.40;;;5.72;;
43504;SDS011;29098;48.184;16.298;2023-08-17T09:42:24;10.43;;;6.20;;
43504;SDS011;29098;48.184;16.298;2023-08-17T09:44:51;7.88;;;5.82;;
43504;SDS011;29098;48.184;16.298;2023-08-17T09:47:18;10.75;;;6.07;;
43504;SDS011;29098;48.184;16.298;2023-08-17T09:49:53;7.05;;;4.93;;
43504;SDS011;29098;48.184;16.298;2023-08-17T09:52:19;9.77;;;6.10;;
43504;SDS011;29098;48.184;16.298;2023-08-17T09:54:46;9.27;;;6.50;;
43504;SDS011;29098;48.184;16.298;2023-08-17T09:57:15;10.65;;;6.05;;
43504;SDS011;29098;48.184;16.298;2023-08-17T09:59:41;7.03;;;5.10;;
43504;SDS011;29098;48.184;16.298;2023-08-17T10:02:15;6.45;;;4.93;;
43504;SDS011;29098;48.184;16.298;2023-08-17T10:04:44;9.05;;;4.95;;
43504;SDS011;29098;48.184;16.298;2023-08-17T10:07:14;8.80;;;4.93;;
43504;SDS011;29098;48.184;16.298;2023-08-17T10:09:42;6.38;;;5.18;;
43504;SDS011;29098;48.184;16.298;2023-08-17T10:12:11;6.75;;;4.93;;
43504;SDS011;29098;48.184;16.298;2023-08-17T10:14:45;7.25;;;5.25;;
43504;SDS011;29098;48.184;16.298;2023-08-17T10:17:15;6.47;;;5.00;;
43504;SDS011;29098;48.184;16.298;2023-08-17T10:19:47;7.15;;;5.28;;
43504;SDS011;29098;48.184;16.298;2023-08-17T10:24:45;8.25;;;4.93;;
43504;SDS011;29098;48.184;16.298;2023-08-17T10:27:11;7.95;;;5.47;;
43504;SDS011;29098;48.184;16.298;2023-08-17T10:29:38;5.97;;;4.50;;
43504;SDS011;29098;48.184;16.298;2023-08-17T10:32:05;5.80;;;4.57;;
43504;SDS011;29098;48.184;16.298;2023-08-17T10:34:31;6.97;;;4.93;;
43504;SDS011;29098;48.184;16.298;2023-08-17T10:36:58;5.55;;;4.40;;
43504;SDS011;29098;48.184;16.298;2023-08-17T10:39:25;7.55;;;5.53;;
43504;SDS011;29098;48.184;16.298;2023-08-17T10:41:52;6.20;;;4.90;;
43504;SDS011;29098;48.184;16.298;2023-08-17T10:47:21;7.97;;;4.57;;
43504;SDS011;29098;48.184;16.298;2023-08-17T10:50:04;7.40;;;5.50;;
43504;SDS011;29098;48.184;16.298;2023-08-17T10:52:35;7.75;;;5.80;;
43504;SDS011;29098;48.184;16.298;2023-08-17T10:55:06;7.25;;;5.60;;
43504;SDS011;29098;48.184;16.298;2023-08-17T10:57:40;10.13;;;5.97;;
43504;SDS011;29098;48.184;16.298;2023-08-17T11:00:08;8.60;;;6.90;;
43504;SDS011;29098;48.184;16.298;2023-08-17T11:02:45;10.63;;;6.35;;
43504;SDS011;29098;48.184;16.298;2023-08-17T11:08:39;7.78;;;5.50;;
43504;SDS011;29098;48.184;16.298;2023-08-17T11:11:15;8.70;;;6.30;;
43504;SDS011;29098;48.184;16.298;2023-08-17T11:13:44;10.05;;;6.13;;
43504;SDS011;29098;48.184;16.298;2023-08-17T11:16:12;10.85;;;5.40;;
43504;SDS011;29098;48.184;16.298;2023-08-17T11:18:38;7.50;;;5.75;;
43504;SDS011;29098;48.184;16.298;2023-08-17T11:21:06;7.65;;;5.88;;
43504;SDS011;29098;48.184;16.298;2023-08-17T11:23:33;7.15;;;5.13;;
43504;SDS011;29098;48.184;16.298;2023-08-17T11:26:00;6.72;;;4.90;;
43504;SDS011;29098;48.184;16.298;2023-08-17T11:28:26;13.77;;;6.88;;
43504;SDS011;29098;48.184;16.298;2023-08-17T11:30:58;7.47;;;4.78;;
43504;SDS011;29098;48.184;16.298;2023-08-17T11:33:25;7.97;;;5.35;;
43504;SDS011;29098;48.184;16.298;2023-08-17T11:35:57;8.38;;;4.63;;
43504;SDS011;29098;48.184;16.298;2023-08-17T11:38:23;6.65;;;4.50;;
43504;SDS011;29098;48.184;16.298;2023-08-17T11:40:50;7.15;;;4.55;;
43504;SDS011;29098;48.184;16.298;2023-08-17T11:43:15;7.38;;;4.30;;
43504;SDS011;29098;48.184;16.298;2023-08-17T11:45:41;5.82;;;3.75;;
43504;SDS011;29098;48.184;16.298;2023-08-17T11:48:07;5.88;;;4.03;;
43504;SDS011;29098;48.184;16.298;2023-08-17T11:50:32;5.75;;;4.60;;
43504;SDS011;29098;48.184;16.298;2023-08-17T11:53:01;5.25;;;4.20;;
43504;SDS011;29098;48.184;16.298;2023-08-17T11:55:27;6.63;;;4.07;;
43504;SDS011;29098;48.184;16.298;2023-08-17T11:57:52;7.65;;;4.75;;
43504;SDS011;29098;48.184;16.298;2023-08-17T12:00:19;5.68;;;4.20;;
43504;SDS011;29098;48.184;16.298;2023-08-17T12:02:49;8.43;;;4.30;;
43504;SDS011;29098;48.184;16.298;2023-08-17T12:05:20;5.13;;;3.88;;
43504;SDS011;29098;48.184;16.298;2023-08-17T12:07:50;6.18;;;4.28;;
43504;SDS011;29098;48.184;16.298;2023-08-17T12:10:18;6.50;;;3.88;;
43504;SDS011;29098;48.184;16.298;2023-08-17T12:12:44;5.30;;;4.15;;
43504;SDS011;29098;48.184;16.298;2023-08-17T12:15:13;4.10;;;3.13;;
43504;SDS011;29098;48.184;16.298;2023-08-17T12:17:45;4.85;;;3.38;;
43504;SDS011;29098;48.184;16.298;2023-08-17T12:20:18;5.03;;;3.92;;
43504;SDS011;29098;48.184;16.298;2023-08-17T12:22:48;5.82;;;3.65;;
43504;SDS011;29098;48.184;16.298;2023-08-17T12:25:13;8.43;;;3.80;;
43504;SDS011;29098;48.184;16.298;2023-08-17T12:27:39;6.13;;;3.42;;
43504;SDS011;29098;48.184;16.298;2023-08-17T12:30:11;6.72;;;3.63;;
43504;SDS011;29098;48.184;16.298;2023-08-17T12:32:38;6.20;;;3.90;;
43504;SDS011;29098;48.184;16.298;2023-08-17T12:35:03;6.00;;;3.92;;
43504;SDS011;29098;48.184;16.298;2023-08-17T12:37:29;6.38;;;3.85;;
43504;SDS011;29098;48.184;16.298;2023-08-17T12:39:55;5.65;;;3.90;;
43504;SDS011;29098;48.184;16.298;2023-08-17T12:42:21;4.40;;;3.30;;
43504;SDS011;29098;48.184;16.298;2023-08-17T12:44:46;5.00;;;3.70;;
43504;SDS011;29098;48.184;16.298;2023-08-17T12:47:11;5.10;;;3.20;;
43504;SDS011;29098;48.184;16.298;2023-08-17T12:49:37;4.85;;;3.22;;
43504;SDS011;29098;48.184;16.298;2023-08-17T12:52:02;6.63;;;3.60;;
43504;SDS011;29098;48.184;16.298;2023-08-17T12:54:28;5.10;;;3.80;;
43504;SDS011;29098;48.184;16.298;2023-08-17T12:56:53;5.45;;;3.53;;
43504;SDS011;29098;48.184;16.298;2023-08-17T12:59:19;5.40;;;3.38;;
43504;SDS011;29098;48.184;16.298;2023-08-17T13:01:44;4.72;;;3.42;;
43504;SDS011;29098;48.184;16.298;2023-08-17T13:04:10;12.90;;;4.03;;
43504;SDS011;29098;48.184;16.298;2023-08-17T13:06:35;5.97;;;3.65;;
43504;SDS011;29098;48.184;16.298;2023-08-17T13:09:00;6.60;;;3.83;;
43504;SDS011;29098;48.184;16.298;2023-08-17T13:11:27;5.70;;;4.15;;
43504;SDS011;29098;48.184;16.298;2023-08-17T13:13:52;5.72;;;3.50;;
43504;SDS011;29098;48.184;16.298;2023-08-17T13:16:17;5.50;;;3.92;;
43504;SDS011;29098;48.184;16.298;2023-08-17T13:18:43;5.55;;;3.67;;
43504;SDS011;29098;48.184;16.298;2023-08-17T13:21:09;7.25;;;4.53;;
43504;SDS011;29098;48.184;16.298;2023-08-17T13:23:34;8.88;;;4.95;;
43504;SDS011;29098;48.184;16.298;2023-08-17T13:25:59;5.78;;;3.70;;
43504;SDS011;29098;48.184;16.298;2023-08-17T13:28:25;5.75;;;4.35;;
43504;SDS011;29098;48.184;16.298;2023-08-17T13:30:51;7.45;;;3.58;;
43504;SDS011;29098;48.184;16.298;2023-08-17T13:33:16;6.28;;;4.05;;
43504;SDS011;29098;48.184;16.298;2023-08-17T13:35:42;5.15;;;3.60;;
43504;SDS011;29098;48.184;16.298;2023-08-17T13:38:07;5.78;;;4.07;;
43504;SDS011;29098;48.184;16.298;2023-08-17T13:40:33;6.00;;;4.63;;
43504;SDS011;29098;48.184;16.298;2023-08-17T13:42:58;6.75;;;3.85;;
43504;SDS011;29098;48.184;16.298;2023-08-17T13:45:25;6.05;;;4.03;;
43504;SDS011;29098;48.184;16.298;2023-08-17T13:47:51;5.80;;;3.97;;
43504;SDS011;29098;48.184;16.298;2023-08-17T13:50:16;5.10;;;3.65;;
43504;SDS011;29098;48.184;16.298;2023-08-17T13:52:43;8.38;;;3.95;;
43504;SDS011;29098;48.184;16.298;2023-08-17T13:55:09;5.05;;;3.70;;
43504;SDS011;29098;48.184;16.298;2023-08-17T13:57:34;6.45;;;3.30;;
43504;SDS011;29098;48.184;16.298;2023-08-17T14:00:00;7.20;;;3.30;;
43504;SDS011;29098;48.184;16.298;2023-08-17T14:02:25;4.75;;;3.30;;
43504;SDS011;29098;48.184;16.298;2023-08-17T14:04:50;6.82;;;3.88;;
43504;SDS011;29098;48.184;16.298;2023-08-17T14:07:17;6.00;;;3.25;;
43504;SDS011;29098;48.184;16.298;2023-08-17T14:09:42;4.70;;;3.60;;
43504;SDS011;29098;48.184;16.298;2023-08-17T14:12:08;4.95;;;3.22;;
43504;SDS011;29098;48.184;16.298;2023-08-17T14:14:33;6.55;;;3.95;;
43504;SDS011;29098;48.184;16.298;2023-08-17T14:16:59;5.40;;;3.47;;
43504;SDS011;29098;48.184;16.298;2023-08-17T14:19:25;5.68;;;4.05;;
43504;SDS011;29098;48.184;16.298;2023-08-17T14:21:51;6.97;;;4.10;;
43504;SDS011;29098;48.184;16.298;2023-08-17T14:24:17;6.10;;;4.05;;
43504;SDS011;29098;48.184;16.298;2023-08-17T14:26:43;6.40;;;3.38;;
43504;SDS011;29098;48.184;16.298;2023-08-17T14:29:08;5.82;;;4.40;;
43504;SDS011;29098;48.184;16.298;2023-08-17T14:31:34;5.40;;;3.97;;
43504;SDS011;29098;48.184;16.298;2023-08-17T14:33:59;6.47;;;3.75;;
43504;SDS011;29098;48.184;16.298;2023-08-17T14:36:25;14.88;;;4.38;;
43504;SDS011;29098;48.184;16.298;2023-08-17T14:38:50;7.22;;;4.07;;
43504;SDS011;29098;48.184;16.298;2023-08-17T14:41:15;8.63;;;4.07;;
43504;SDS011;29098;48.184;16.298;2023-08-17T14:43:41;5.50;;;4.15;;